Decoded Metar for YPPD (PORT HEDLAND in AUSTRALIA) (IATA:PHE) | Meteo·Mobile Aviation Weather
aviador You're here:

YPPD Decoded Metar

PORT HEDLAND in AUSTRALIA
Report Time2019-04-21 00:00:00
UTC Time2019-04-21 00:38:37
Flight Rules vfr VFR
Wind140° at 17 kt
W.Decomp.*RWY 14: 17.0 kt HW 0.3 kt LCW
RWY 18: 12.8 kt HW 11.2 kt LCW
Visibility9999 m
Phenomena:N/A
Clouds:N/A
Expected CloudBase > 8,800 ft AGL from Temp-Dew spread
CeilingNone
Temp24°C (ISA +9)
Dew Point02°C (24% RH)
AAT16.2°C
QNH1016 hPa
Density Alt1,070 ft
Elevation20 ft
Report Wrong Elevation
Raw Report
YPPD 210000Z AUTO 14017KT 9999 // NCD 24/02 Q1016=

Extra information for YPPD:More info

Metar Taf Metar & Taf Last 4 Metars F.Rules Stats Wind Profile Meteogram Temp Stats Airport Information Weather charts Add Link Nearby VenuesMetar ALERT Operation Metar Decoded Social comments